createdAt,value
2022-10-18T00:01:04.514Z,15.17
2022-10-18T00:03:33.201Z,15.16
2022-10-18T00:06:01.075Z,15.14
2022-10-18T00:08:29.997Z,15.13
2022-10-18T00:10:57.812Z,15.13
2022-10-18T00:13:26.856Z,15.12
2022-10-18T00:15:59.388Z,15.12
2022-10-18T00:18:28.212Z,15.11
2022-10-18T00:21:01.643Z,15.10
2022-10-18T00:23:31.244Z,15.09
2022-10-18T00:26:18.774Z,15.09
2022-10-18T00:28:50.234Z,15.07
2022-10-18T00:31:20.215Z,15.02
2022-10-18T00:33:52.101Z,15.03
2022-10-18T00:36:20.982Z,15.03
2022-10-18T00:38:49.346Z,15.05
2022-10-18T00:41:24.244Z,15.04
2022-10-18T00:44:04.242Z,15.04
2022-10-18T00:46:41.025Z,15.04
2022-10-18T00:49:25.106Z,15.04
2022-10-18T00:51:59.795Z,15.02
2022-10-18T00:54:31.117Z,15.04
2022-10-18T00:56:59.291Z,15.03
2022-10-18T00:59:27.380Z,15.02
2022-10-18T01:01:54.856Z,15.04
2022-10-18T01:04:22.464Z,15.04
2022-10-18T01:07:41.623Z,15.04
2022-10-18T01:11:03.557Z,15.03
2022-10-18T01:14:17.727Z,15.01
2022-10-18T01:16:59.118Z,15.00
2022-10-18T01:19:47.693Z,14.99
2022-10-18T01:22:31.446Z,14.99
2022-10-18T01:25:27.126Z,14.98
2022-10-18T01:28:15.788Z,14.97
2022-10-18T01:30:55.909Z,14.99
2022-10-18T01:33:49.239Z,14.97
2022-10-18T01:36:30.597Z,14.96
2022-10-18T01:39:05.715Z,14.94
2022-10-18T01:41:37.567Z,14.93
2022-10-18T01:44:11.386Z,14.93
2022-10-18T01:46:41.257Z,14.93
2022-10-18T01:49:08.792Z,14.93
2022-10-18T01:51:36.257Z,14.94
2022-10-18T01:54:03.730Z,14.93
2022-10-18T01:57:12.256Z,14.94
2022-10-18T01:59:54.744Z,14.92
2022-10-18T02:02:39.028Z,14.93
2022-10-18T02:05:33.074Z,14.92
2022-10-18T02:08:27.951Z,14.91
2022-10-18T02:11:05.453Z,14.90
2022-10-18T02:13:59.623Z,14.91
2022-10-18T02:16:40.601Z,14.89
2022-10-18T02:19:40.402Z,14.87
2022-10-18T02:22:11.387Z,14.84
2022-10-18T02:24:48.232Z,14.84
2022-10-18T02:27:15.845Z,14.83
2022-10-18T02:29:45.267Z,14.82
2022-10-18T02:32:27.415Z,14.83
2022-10-18T02:35:06.981Z,14.81
2022-10-18T02:37:39.779Z,14.81
2022-10-18T02:40:10.131Z,14.79
2022-10-18T02:42:44.309Z,14.80
2022-10-18T02:45:13.153Z,14.81
2022-10-18T02:47:40.616Z,14.82
2022-10-18T02:50:09.131Z,14.82
2022-10-18T02:52:36.802Z,14.83
2022-10-18T02:55:04.989Z,14.82
2022-10-18T02:57:32.852Z,14.83
2022-10-18T03:00:00.557Z,14.83
2022-10-18T03:02:27.933Z,14.83
2022-10-18T03:04:55.302Z,14.83
2022-10-18T03:07:22.731Z,14.84
2022-10-18T03:09:50.075Z,14.83
2022-10-18T03:12:17.547Z,14.82
2022-10-18T03:14:44.941Z,14.82
2022-10-18T03:17:12.363Z,14.82
2022-10-18T03:19:39.796Z,14.83
2022-10-18T03:22:07.236Z,14.83
2022-10-18T03:24:34.627Z,14.84
2022-10-18T03:27:02.386Z,14.84
2022-10-18T03:29:29.782Z,14.85
2022-10-18T03:31:57.191Z,14.85
2022-10-18T03:34:24.573Z,14.85
2022-10-18T03:36:51.929Z,14.84
2022-10-18T03:39:19.349Z,14.85
2022-10-18T03:41:46.723Z,14.85
2022-10-18T03:44:14.068Z,14.85
2022-10-18T03:46:41.628Z,14.84
2022-10-18T03:49:08.985Z,14.84
2022-10-18T03:51:36.373Z,14.85
2022-10-18T03:54:04.000Z,14.84
2022-10-18T03:56:31.374Z,14.84
2022-10-18T03:58:58.759Z,14.84
2022-10-18T04:01:26.394Z,14.83
2022-10-18T04:03:53.822Z,14.82
2022-10-18T04:06:21.199Z,14.82
2022-10-18T04:08:48.536Z,14.81
2022-10-18T04:11:15.896Z,14.78
2022-10-18T04:13:43.307Z,14.78
2022-10-18T04:16:10.649Z,14.76
2022-10-18T04:18:38.254Z,14.76
2022-10-18T04:21:05.817Z,14.75
2022-10-18T04:23:36.340Z,14.74
2022-10-18T04:26:07.561Z,14.71
2022-10-18T04:28:39.838Z,14.69
2022-10-18T04:31:07.447Z,14.68
2022-10-18T04:33:35.331Z,14.70
2022-10-18T04:36:02.889Z,14.69
2022-10-18T04:38:30.417Z,14.69
2022-10-18T04:40:57.845Z,14.69
2022-10-18T04:43:25.231Z,14.69
2022-10-18T04:45:52.609Z,14.69
2022-10-18T04:48:20.497Z,14.69
2022-10-18T04:50:50.078Z,14.71
2022-10-18T04:53:19.163Z,14.71
2022-10-18T04:55:49.432Z,14.73
2022-10-18T04:58:18.593Z,14.73
2022-10-18T05:00:47.657Z,14.74
2022-10-18T05:03:15.824Z,14.75
2022-10-18T05:06:00.700Z,14.77
2022-10-18T05:08:30.680Z,14.75
2022-10-18T05:10:58.513Z,14.75
2022-10-18T05:13:26.488Z,14.76
2022-10-18T05:15:53.913Z,14.77
2022-10-18T05:18:21.616Z,14.77
2022-10-18T05:20:48.999Z,14.77
2022-10-18T05:23:16.368Z,14.78
2022-10-18T05:25:44.151Z,14.78
2022-10-18T05:28:38.799Z,14.78
2022-10-18T05:31:07.217Z,14.78
2022-10-18T05:33:34.947Z,14.77
2022-10-18T05:36:02.331Z,14.77
2022-10-18T05:38:32.687Z,14.76
2022-10-18T05:41:04.304Z,14.75
2022-10-18T05:43:31.635Z,14.72
2022-10-18T05:45:58.970Z,14.70
2022-10-18T05:48:26.644Z,14.70
2022-10-18T05:50:54.088Z,14.68
2022-10-18T05:53:37.743Z,14.68
2022-10-18T05:56:07.186Z,14.66
2022-10-18T05:58:35.378Z,14.67
2022-10-18T06:01:05.464Z,14.67
2022-10-18T06:03:34.223Z,14.66
2022-10-18T06:06:08.334Z,14.66
2022-10-18T06:08:37.511Z,14.64
2022-10-18T06:11:14.031Z,14.64
2022-10-18T06:13:47.866Z,14.63
2022-10-18T06:16:18.403Z,14.61
2022-10-18T06:18:55.065Z,14.60
2022-10-18T06:21:25.033Z,14.59
2022-10-18T06:23:57.267Z,14.61
2022-10-18T06:26:26.585Z,14.61
2022-10-18T06:28:54.200Z,14.63
2022-10-18T06:31:21.728Z,14.64
2022-10-18T06:33:49.263Z,14.64
2022-10-18T06:36:24.176Z,14.66
2022-10-18T06:38:51.879Z,14.65
2022-10-18T06:41:19.649Z,14.64
2022-10-18T06:43:53.351Z,14.64
2022-10-18T06:46:24.474Z,14.62
2022-10-18T06:48:52.089Z,14.61
2022-10-18T06:51:20.014Z,14.61
2022-10-18T06:54:05.856Z,14.60
2022-10-18T06:56:35.758Z,14.60
2022-10-18T06:59:04.225Z,14.58
2022-10-18T07:01:32.600Z,14.58
2022-10-18T07:04:00.056Z,14.55
2022-10-18T07:06:27.683Z,14.52
2022-10-18T07:08:55.168Z,14.50
2022-10-18T07:11:26.135Z,14.47
2022-10-18T07:14:00.762Z,14.45
2022-10-18T07:16:28.446Z,14.42
2022-10-18T07:18:55.773Z,14.41
2022-10-18T07:21:25.864Z,14.41
2022-10-18T07:23:54.439Z,14.42
2022-10-18T07:26:32.148Z,14.43
2022-10-18T07:29:09.694Z,14.44
2022-10-18T07:31:40.944Z,14.44
2022-10-18T07:34:12.933Z,14.45
2022-10-18T07:36:40.905Z,14.46
2022-10-18T07:39:09.240Z,14.47
2022-10-18T07:41:37.053Z,14.48
2022-10-18T07:44:04.630Z,14.49
2022-10-18T07:46:32.380Z,14.48
2022-10-18T07:48:59.731Z,14.48
2022-10-18T07:51:28.156Z,14.47
2022-10-18T07:53:55.491Z,14.45
2022-10-18T07:56:23.256Z,14.47
2022-10-18T07:58:54.140Z,14.48
2022-10-18T08:01:24.072Z,14.51
2022-10-18T08:03:52.729Z,14.54
2022-10-18T08:06:22.734Z,14.56
2022-10-18T08:08:50.534Z,14.57
2022-10-18T08:11:22.221Z,14.61
2022-10-18T08:13:50.371Z,14.59
2022-10-18T08:16:26.507Z,14.60
2022-10-18T08:18:57.066Z,14.58
2022-10-18T08:21:24.523Z,14.58
2022-10-18T08:23:53.708Z,14.59
2022-10-18T08:26:23.544Z,14.62
2022-10-18T08:29:10.251Z,14.64
2022-10-18T08:31:37.979Z,14.64
2022-10-18T08:34:05.320Z,14.67
2022-10-18T08:36:33.006Z,14.68
2022-10-18T08:39:00.357Z,14.71
2022-10-18T08:41:36.952Z,14.71
2022-10-18T08:44:24.853Z,14.70
2022-10-18T08:47:02.473Z,14.71
2022-10-18T08:49:46.322Z,14.76
2022-10-18T08:52:35.450Z,14.81
2022-10-18T08:55:15.880Z,14.85
2022-10-18T08:57:43.584Z,14.88
2022-10-18T09:00:20.280Z,14.93
2022-10-18T09:03:07.142Z,14.97
2022-10-18T09:05:52.417Z,15.00
2022-10-18T09:08:46.579Z,15.06
2022-10-18T09:11:42.914Z,15.11
2022-10-18T09:15:03.665Z,15.19
2022-10-18T09:18:30.937Z,15.28
2022-10-18T09:21:22.765Z,15.32
2022-10-18T09:24:05.446Z,15.31
2022-10-18T09:26:49.885Z,15.33
2022-10-18T09:29:51.954Z,15.39
2022-10-18T09:32:37.263Z,15.41
2022-10-18T09:35:18.188Z,15.49
2022-10-18T09:37:47.348Z,15.56
2022-10-18T09:40:29.924Z,15.64
2022-10-18T09:43:08.044Z,15.70
2022-10-18T09:45:41.427Z,15.78
2022-10-18T09:48:28.244Z,15.90
2022-10-18T09:51:12.081Z,16.01
2022-10-18T09:54:15.746Z,16.08
2022-10-18T09:57:09.786Z,16.12
2022-10-18T09:59:43.152Z,16.17
2022-10-18T10:02:22.141Z,16.21
2022-10-18T10:04:51.872Z,16.24
2022-10-18T10:07:28.640Z,16.27
2022-10-18T10:10:07.438Z,16.34
2022-10-18T10:12:38.806Z,16.38
2022-10-18T10:15:28.190Z,16.48
2022-10-18T10:18:17.589Z,16.54
2022-10-18T10:20:53.920Z,16.60
2022-10-18T10:23:44.424Z,16.66
2022-10-18T10:26:28.989Z,16.77
2022-10-18T10:28:56.675Z,16.82
2022-10-18T10:31:29.344Z,16.86
2022-10-18T10:34:03.537Z,16.94
2022-10-18T10:36:33.510Z,17.00
2022-10-18T10:39:18.862Z,17.06
2022-10-18T10:41:56.611Z,17.11
2022-10-18T10:44:29.125Z,17.15
2022-10-18T10:46:57.824Z,17.18
2022-10-18T10:49:47.680Z,17.21
2022-10-18T10:52:29.033Z,17.25
2022-10-18T10:55:17.037Z,17.27
2022-10-18T10:57:52.200Z,17.29
2022-10-18T11:00:43.958Z,17.32
2022-10-18T11:03:28.947Z,17.36
2022-10-18T11:06:00.627Z,17.39
2022-10-18T11:08:40.938Z,17.43
2022-10-18T11:11:33.579Z,17.50
2022-10-18T11:14:26.582Z,17.55
2022-10-18T11:17:22.862Z,17.60
2022-10-18T11:20:11.768Z,17.63
2022-10-18T11:23:01.109Z,17.70
2022-10-18T11:25:48.649Z,17.77
2022-10-18T11:28:34.707Z,17.85
2022-10-18T11:31:17.653Z,17.90
2022-10-18T11:34:28.269Z,17.94
2022-10-18T11:37:42.155Z,17.99
2022-10-18T11:40:40.339Z,18.03
2022-10-18T11:44:02.153Z,18.01
2022-10-18T11:47:28.010Z,18.06
2022-10-18T11:50:26.164Z,18.10
2022-10-18T11:53:27.251Z,18.15
2022-10-18T11:56:36.875Z,18.18
2022-10-18T11:59:32.536Z,18.22
2022-10-18T12:02:45.801Z,18.27
2022-10-18T12:05:30.265Z,18.31
2022-10-18T12:08:35.791Z,18.33
2022-10-18T12:11:15.696Z,18.33
2022-10-18T12:13:57.679Z,18.40
2022-10-18T12:16:50.454Z,18.45
2022-10-18T12:19:33.005Z,18.47
2022-10-18T12:22:35.330Z,18.46
2022-10-18T12:25:04.111Z,18.52
2022-10-18T12:27:46.257Z,18.58
2022-10-18T12:30:57.332Z,18.59
2022-10-18T12:33:36.012Z,18.59
2022-10-18T12:36:21.419Z,18.63
2022-10-18T12:39:03.205Z,18.67
2022-10-18T12:41:36.284Z,18.73
2022-10-18T12:44:18.401Z,18.77
2022-10-18T12:46:49.520Z,18.84
2022-10-18T12:49:42.620Z,18.90
2022-10-18T12:52:28.716Z,18.93
2022-10-18T12:55:26.435Z,18.97
2022-10-18T12:57:53.710Z,19.01
2022-10-18T13:00:30.127Z,19.05
2022-10-18T13:03:12.531Z,19.07
2022-10-18T13:05:54.491Z,19.11
2022-10-18T13:08:31.674Z,19.14
2022-10-18T13:11:01.891Z,19.14
2022-10-18T13:13:40.663Z,19.18
2022-10-18T13:16:31.005Z,19.22
2022-10-18T13:20:25.024Z,19.23
2022-10-18T13:23:25.130Z,19.22
2022-10-18T13:25:58.252Z,19.26
2022-10-18T13:28:48.843Z,19.32
2022-10-18T13:31:28.655Z,19.33
2022-10-18T13:34:17.654Z,19.33
2022-10-18T13:36:56.909Z,19.35
2022-10-18T13:39:25.316Z,19.38
2022-10-18T13:41:58.528Z,19.41
2022-10-18T13:44:40.451Z,19.48
2022-10-18T13:47:07.870Z,19.50
2022-10-18T13:49:59.735Z,19.53
2022-10-18T13:53:00.049Z,19.49
2022-10-18T13:55:50.825Z,19.45
2022-10-18T13:59:14.461Z,19.45
2022-10-18T14:02:42.844Z,19.44
2022-10-18T14:05:25.082Z,19.42
2022-10-18T14:08:08.086Z,19.43
2022-10-18T14:11:03.528Z,19.41
2022-10-18T14:13:45.093Z,19.42
2022-10-18T14:16:34.482Z,19.47
2022-10-18T14:19:30.184Z,19.48
2022-10-18T14:22:11.665Z,19.50
2022-10-18T14:24:46.525Z,19.49
2022-10-18T14:27:26.964Z,19.49
2022-10-18T14:30:08.557Z,19.48
2022-10-18T14:32:36.461Z,19.45
2022-10-18T14:37:54.644Z,19.47
2022-10-18T14:40:34.131Z,19.49
2022-10-18T14:43:14.697Z,19.47
2022-10-18T14:45:42.882Z,19.44
2022-10-18T14:48:17.533Z,19.41
2022-10-18T14:50:49.244Z,19.37
2022-10-18T14:53:25.071Z,19.37
2022-10-18T14:55:56.092Z,19.36
2022-10-18T14:58:23.756Z,19.34
2022-10-18T15:00:51.155Z,19.30
2022-10-18T15:03:19.130Z,19.28
2022-10-18T15:06:00.589Z,19.24
2022-10-18T15:08:42.586Z,19.20
2022-10-18T15:11:14.754Z,19.16
2022-10-18T15:14:14.526Z,19.08
2022-10-18T15:16:42.997Z,18.99
2022-10-18T15:19:16.230Z,18.90
2022-10-18T15:22:27.196Z,18.80
2022-10-18T15:25:20.776Z,18.68
2022-10-18T15:27:53.389Z,18.58
2022-10-18T15:30:40.914Z,18.46
2022-10-18T15:33:21.964Z,18.34
2022-10-18T15:35:51.333Z,18.23
2022-10-18T15:38:32.668Z,18.13
2022-10-18T15:41:00.000Z,18.02
2022-10-18T15:43:27.322Z,17.93
2022-10-18T15:46:05.053Z,17.82
2022-10-18T15:48:45.253Z,17.71
2022-10-18T15:51:48.302Z,17.63
2022-10-18T15:54:19.945Z,17.53
2022-10-18T15:56:47.372Z,17.46
2022-10-18T15:59:25.975Z,17.39
2022-10-18T16:01:54.233Z,17.30
2022-10-18T16:04:31.424Z,17.25
2022-10-18T16:07:00.360Z,17.17
2022-10-18T16:09:29.154Z,17.10
2022-10-18T16:11:58.062Z,17.03
2022-10-18T16:14:26.399Z,16.95
2022-10-18T16:17:00.939Z,16.86
2022-10-18T16:19:29.125Z,16.77
2022-10-18T16:21:56.590Z,16.70
2022-10-18T16:24:24.414Z,16.63
2022-10-18T16:26:53.068Z,16.56
2022-10-18T16:29:28.704Z,16.48
2022-10-18T16:31:58.198Z,16.38
2022-10-18T16:34:27.401Z,16.27
2022-10-18T16:36:55.366Z,16.17
2022-10-18T16:39:23.820Z,16.06
2022-10-18T16:41:51.869Z,15.96
2022-10-18T16:44:19.503Z,15.85
2022-10-18T16:46:51.106Z,15.75
2022-10-18T16:49:25.017Z,15.63
2022-10-18T16:51:54.293Z,15.54
2022-10-18T16:54:23.421Z,15.47
2022-10-18T16:56:51.326Z,15.38
2022-10-18T16:59:26.421Z,15.28
2022-10-18T17:01:53.903Z,15.18
2022-10-18T17:04:21.338Z,15.10
2022-10-18T17:06:49.154Z,15.00
2022-10-18T17:09:16.821Z,14.92
2022-10-18T17:11:45.160Z,14.82
2022-10-18T17:14:12.483Z,14.72
2022-10-18T17:16:39.896Z,14.64
2022-10-18T17:19:11.676Z,14.55
2022-10-18T17:21:39.063Z,14.45
2022-10-18T17:24:06.548Z,14.36
2022-10-18T17:26:36.225Z,14.28
2022-10-18T17:29:08.021Z,14.21
2022-10-18T17:31:35.767Z,14.12
2022-10-18T17:34:04.358Z,14.03
2022-10-18T17:36:33.742Z,13.96
2022-10-18T17:39:01.206Z,13.88
2022-10-18T17:41:28.620Z,13.83
2022-10-18T17:43:56.389Z,13.76
2022-10-18T17:46:23.900Z,13.69
2022-10-18T17:48:51.282Z,13.63
2022-10-18T17:51:18.833Z,13.57
2022-10-18T17:53:46.544Z,13.49
2022-10-18T17:56:15.536Z,13.43
2022-10-18T17:58:43.554Z,13.35
2022-10-18T18:01:13.472Z,13.28
2022-10-18T18:03:41.527Z,13.19
2022-10-18T18:06:45.797Z,13.12
2022-10-18T18:09:16.709Z,13.01
2022-10-18T18:11:47.267Z,12.95
2022-10-18T18:14:16.024Z,12.90
2022-10-18T18:16:46.970Z,12.86
2022-10-18T18:19:17.561Z,12.79
2022-10-18T18:21:45.382Z,12.74
2022-10-18T18:24:13.999Z,12.70
2022-10-18T18:26:41.980Z,12.64
2022-10-18T18:29:12.664Z,12.58
2022-10-18T18:31:43.770Z,12.54
2022-10-18T18:34:11.748Z,12.48
2022-10-18T18:36:39.784Z,12.44
2022-10-18T18:39:09.042Z,12.40
2022-10-18T18:41:37.713Z,12.33
2022-10-18T18:44:06.220Z,12.26
2022-10-18T18:46:38.884Z,12.22
2022-10-18T18:49:07.957Z,12.17
2022-10-18T18:51:40.173Z,12.14
2022-10-18T18:54:10.509Z,12.09
2022-10-18T18:56:38.517Z,12.04
2022-10-18T18:59:07.313Z,11.99
2022-10-18T19:01:37.316Z,11.96
2022-10-18T19:04:07.262Z,11.91
2022-10-18T19:06:38.358Z,11.86
2022-10-18T19:09:18.524Z,11.82
2022-10-18T19:11:48.904Z,11.77
2022-10-18T19:14:16.881Z,11.72
2022-10-18T19:16:53.540Z,11.69
2022-10-18T19:19:24.036Z,11.62
2022-10-18T19:21:55.876Z,11.58
2022-10-18T19:24:25.460Z,11.52
2022-10-18T19:27:08.373Z,11.45
2022-10-18T19:29:39.243Z,11.38
2022-10-18T19:32:12.151Z,11.31
2022-10-18T19:34:40.409Z,11.25
2022-10-18T19:37:09.416Z,11.19
2022-10-18T19:39:37.739Z,11.15
2022-10-18T19:42:17.460Z,11.10
2022-10-18T19:44:48.490Z,11.04
2022-10-18T19:47:15.973Z,11.01
2022-10-18T19:49:43.338Z,10.96
2022-10-18T19:52:12.500Z,10.90
2022-10-18T19:54:39.982Z,10.84
2022-10-18T19:57:07.528Z,10.80
2022-10-18T19:59:35.978Z,10.77
2022-10-18T20:02:04.693Z,10.72
2022-10-18T20:04:34.724Z,10.69
2022-10-18T20:07:03.011Z,10.64
2022-10-18T20:09:30.482Z,10.61
2022-10-18T20:11:57.848Z,10.57
2022-10-18T20:14:25.670Z,10.54
2022-10-18T20:16:53.033Z,10.51
2022-10-18T20:19:20.424Z,10.45
2022-10-18T20:21:47.769Z,10.42
2022-10-18T20:24:22.146Z,10.38
2022-10-18T20:27:42.857Z,10.34
2022-10-18T20:30:56.399Z,10.25
2022-10-18T20:33:56.512Z,10.19
2022-10-18T20:36:25.914Z,10.16
2022-10-18T20:38:53.328Z,10.13
2022-10-18T20:41:48.376Z,10.11
2022-10-18T20:44:19.209Z,10.06
2022-10-18T20:46:46.980Z,10.01
2022-10-18T20:49:16.647Z,9.98
2022-10-18T20:51:44.282Z,9.94
2022-10-18T20:54:12.360Z,9.90
2022-10-18T20:56:39.960Z,9.87
2022-10-18T20:59:09.623Z,9.84
2022-10-18T21:01:39.406Z,9.81
2022-10-18T21:04:10.081Z,9.77
2022-10-18T21:06:41.847Z,9.75
2022-10-18T21:09:12.940Z,9.66
2022-10-18T21:11:43.159Z,9.62
2022-10-18T21:14:21.706Z,9.61
2022-10-18T21:16:51.440Z,9.56
2022-10-18T21:19:25.795Z,9.55
2022-10-18T21:21:57.504Z,9.51
2022-10-18T21:24:26.125Z,9.43
2022-10-18T21:26:54.609Z,9.39
2022-10-18T21:29:24.520Z,9.37
2022-10-18T21:31:59.414Z,9.36
2022-10-18T21:34:26.934Z,9.32
2022-10-18T21:36:54.290Z,9.28
2022-10-18T21:41:55.971Z,9.22
2022-10-18T21:44:23.590Z,9.18
2022-10-18T21:46:51.557Z,9.15
2022-10-18T21:49:19.061Z,9.13
2022-10-18T21:51:46.448Z,9.09
2022-10-18T21:54:16.111Z,9.07
2022-10-18T21:56:44.065Z,9.05
2022-10-18T21:59:14.555Z,9.03
2022-10-18T22:01:43.576Z,8.98
2022-10-18T22:04:24.241Z,8.96
2022-10-18T22:06:52.252Z,8.90
2022-10-18T22:09:21.360Z,8.88
2022-10-18T22:11:53.135Z,8.85
2022-10-18T22:14:21.449Z,8.76
2022-10-18T22:16:48.855Z,8.73
2022-10-18T22:19:16.722Z,8.73
2022-10-18T22:21:44.097Z,8.71
2022-10-18T22:24:11.696Z,8.68
2022-10-18T22:26:42.392Z,8.67
2022-10-18T22:29:17.341Z,8.64
2022-10-18T22:31:52.049Z,8.62
2022-10-18T22:34:29.231Z,8.61
2022-10-18T22:36:57.164Z,8.59
2022-10-18T22:39:24.712Z,8.57
2022-10-18T22:41:55.507Z,8.55
2022-10-18T22:44:23.592Z,8.51
2022-10-18T22:46:50.923Z,8.48
2022-10-18T22:49:18.301Z,8.43
2022-10-18T22:51:45.682Z,8.41
2022-10-18T22:54:13.101Z,8.38
2022-10-18T22:56:40.447Z,8.35
2022-10-18T22:59:07.827Z,8.33
2022-10-18T23:01:35.742Z,8.30
2022-10-18T23:04:03.678Z,8.27
2022-10-18T23:06:35.526Z,8.23
2022-10-18T23:09:05.904Z,8.15
2022-10-18T23:11:35.073Z,8.12
2022-10-18T23:14:05.304Z,8.12
2022-10-18T23:16:33.270Z,8.09
2022-10-18T23:19:00.765Z,8.07
2022-10-18T23:21:29.013Z,8.04
2022-10-18T23:23:57.406Z,8.00
2022-10-18T23:26:27.942Z,7.99
2022-10-18T23:28:56.515Z,7.97
2022-10-18T23:31:31.300Z,7.95
2022-10-18T23:34:04.814Z,7.93
2022-10-18T23:36:33.632Z,7.90
2022-10-18T23:39:03.105Z,7.86
2022-10-18T23:41:30.660Z,7.83
2022-10-18T23:43:58.104Z,7.80
2022-10-18T23:46:25.489Z,7.79
2022-10-18T23:48:52.876Z,7.77
2022-10-18T23:51:20.225Z,7.75
2022-10-18T23:53:48.332Z,7.73
2022-10-18T23:56:16.635Z,7.70
2022-10-18T23:58:45.334Z,7.66
